createdAt,value
2023-02-02T00:02:02.352Z,18.77
2023-02-02T00:04:32.394Z,15.87
2023-02-02T00:06:59.919Z,21.90
2023-02-02T00:09:29.311Z,19.83
2023-02-02T00:11:57.033Z,20.10
2023-02-02T00:14:24.869Z,26.40
2023-02-02T00:16:53.484Z,18.00
2023-02-02T00:19:26.374Z,23.80
2023-02-02T00:21:54.542Z,20.37
2023-02-02T00:24:21.768Z,20.50
2023-02-02T00:26:52.084Z,29.87
2023-02-02T00:29:28.584Z,21.73
2023-02-02T00:31:55.695Z,21.70
2023-02-02T00:34:22.995Z,17.60
2023-02-02T00:36:50.322Z,21.80
2023-02-02T00:39:27.481Z,19.90
2023-02-02T00:41:55.705Z,20.23
2023-02-02T00:44:41.372Z,16.20
2023-02-02T00:47:08.046Z,17.13
2023-02-02T00:49:34.710Z,18.20
2023-02-02T00:52:01.388Z,23.93
2023-02-02T00:54:28.550Z,23.83
2023-02-02T00:56:55.254Z,20.20
2023-02-02T00:59:21.920Z,19.47
2023-02-02T01:01:48.653Z,17.13
2023-02-02T01:04:15.348Z,20.90
2023-02-02T01:06:42.164Z,20.20
2023-02-02T01:09:08.941Z,26.40
2023-02-02T01:11:36.667Z,21.27
2023-02-02T01:14:03.641Z,23.80
2023-02-02T01:16:30.471Z,26.70
2023-02-02T01:18:57.272Z,26.40
2023-02-02T01:21:24.220Z,20.83
2023-02-02T01:23:50.944Z,27.33
2023-02-02T01:26:18.305Z,20.70
2023-02-02T01:28:45.513Z,30.63
2023-02-02T01:31:14.927Z,25.80
2023-02-02T01:33:43.565Z,22.97
2023-02-02T01:36:16.522Z,28.83
2023-02-02T01:38:43.719Z,24.53
2023-02-02T01:41:20.715Z,21.60
2023-02-02T01:43:47.378Z,24.67
2023-02-02T01:46:15.353Z,25.93
2023-02-02T01:48:46.462Z,25.00
2023-02-02T01:51:17.762Z,19.57
2023-02-02T01:53:46.049Z,23.47
2023-02-02T01:56:17.500Z,26.97
2023-02-02T01:58:45.057Z,24.60
2023-02-02T02:01:12.479Z,31.23
2023-02-02T02:03:39.428Z,26.20
2023-02-02T02:06:13.832Z,23.90
2023-02-02T02:08:43.911Z,25.07
2023-02-02T02:11:10.860Z,29.70
2023-02-02T02:13:57.429Z,27.03
2023-02-02T02:16:49.317Z,29.83
2023-02-02T02:20:18.025Z,33.07
2023-02-02T02:23:22.771Z,29.53
2023-02-02T02:26:20.179Z,35.80
2023-02-02T02:29:09.532Z,33.40
2023-02-02T02:32:01.079Z,50.67
2023-02-02T02:34:50.224Z,33.03
2023-02-02T02:37:40.924Z,30.83
2023-02-02T02:40:35.422Z,32.40
2023-02-02T02:43:15.454Z,29.57
2023-02-02T02:45:44.556Z,36.60
2023-02-02T02:48:12.405Z,29.90
2023-02-02T02:50:39.189Z,30.30
2023-02-02T02:53:11.694Z,29.93
2023-02-02T02:55:54.967Z,29.93
2023-02-02T02:58:41.999Z,27.20
2023-02-02T03:01:27.852Z,36.07
2023-02-02T03:04:00.321Z,25.20
2023-02-02T03:06:44.799Z,32.73
2023-02-02T03:09:17.015Z,41.13
2023-02-02T03:11:44.058Z,24.07
2023-02-02T03:14:10.814Z,36.67
2023-02-02T03:16:37.714Z,35.23
2023-02-02T03:19:06.146Z,28.73
2023-02-02T03:21:33.700Z,26.87
2023-02-02T03:24:01.028Z,30.63
2023-02-02T03:26:28.505Z,36.13
2023-02-02T03:28:57.325Z,30.33
2023-02-02T03:31:26.967Z,29.50
2023-02-02T03:33:54.107Z,20.50
2023-02-02T03:36:21.628Z,29.40
2023-02-02T03:38:48.456Z,30.93
2023-02-02T03:41:15.249Z,27.53
2023-02-02T03:43:41.919Z,30.37
2023-02-02T03:46:08.644Z,40.50
2023-02-02T03:48:37.279Z,33.83
2023-02-02T03:51:12.001Z,29.03
2023-02-02T03:53:40.191Z,32.73
2023-02-02T03:56:07.233Z,35.63
2023-02-02T03:58:33.940Z,36.43
2023-02-02T04:01:05.757Z,27.23
2023-02-02T04:03:32.964Z,34.70
2023-02-02T04:06:00.207Z,29.27
2023-02-02T04:08:26.926Z,24.80
2023-02-02T04:10:53.947Z,31.97
2023-02-02T04:13:20.587Z,43.43
2023-02-02T04:15:47.294Z,35.47
2023-02-02T04:18:13.968Z,34.07
2023-02-02T04:20:40.641Z,32.43
2023-02-02T04:23:07.322Z,33.60
2023-02-02T04:25:33.987Z,34.40
2023-02-02T04:28:00.629Z,29.67
2023-02-02T04:30:27.285Z,27.27
2023-02-02T04:32:55.040Z,38.70
2023-02-02T04:35:21.951Z,34.33
2023-02-02T04:37:48.760Z,38.20
2023-02-02T04:40:15.515Z,27.93
2023-02-02T04:42:42.154Z,37.00
2023-02-02T04:45:09.228Z,38.83
2023-02-02T04:47:35.945Z,38.10
2023-02-02T04:50:02.631Z,34.23
2023-02-02T04:52:29.549Z,41.20
2023-02-02T04:54:56.199Z,38.07
2023-02-02T04:57:22.930Z,44.20
2023-02-02T04:59:49.693Z,48.13
2023-02-02T05:02:16.406Z,40.80
2023-02-02T05:04:43.077Z,39.33
2023-02-02T05:07:09.776Z,32.47
2023-02-02T05:09:36.423Z,33.40
2023-02-02T05:12:03.385Z,39.27
2023-02-02T05:14:30.081Z,32.87
2023-02-02T05:16:56.795Z,36.40
2023-02-02T05:19:23.472Z,42.70
2023-02-02T05:21:51.325Z,47.87
2023-02-02T05:24:18.183Z,33.97
2023-02-02T05:26:44.987Z,37.37
2023-02-02T05:29:11.750Z,36.10
2023-02-02T05:31:38.483Z,36.10
2023-02-02T05:34:06.811Z,40.97
2023-02-02T05:36:33.713Z,32.70
2023-02-02T05:39:00.463Z,43.80
2023-02-02T05:41:27.125Z,42.90
2023-02-02T05:43:53.855Z,40.47
2023-02-02T05:46:20.600Z,51.17
2023-02-02T05:48:47.590Z,43.20
2023-02-02T05:51:33.376Z,38.53
2023-02-02T05:54:01.033Z,35.00
2023-02-02T05:56:27.860Z,38.00
2023-02-02T05:58:54.545Z,36.30
2023-02-02T06:01:21.967Z,38.73
2023-02-02T06:03:48.757Z,38.93
2023-02-02T06:06:15.471Z,41.63
2023-02-02T06:08:42.116Z,49.30
2023-02-02T06:11:13.298Z,38.13
2023-02-02T06:13:40.019Z,55.83
2023-02-02T06:16:07.370Z,50.80
2023-02-02T06:18:35.353Z,45.60
2023-02-02T06:21:05.619Z,49.60
2023-02-02T06:23:33.478Z,46.83
2023-02-02T06:26:00.659Z,43.67
2023-02-02T06:28:27.311Z,43.17
2023-02-02T06:30:54.015Z,54.37
2023-02-02T06:33:20.695Z,53.73
2023-02-02T06:35:47.408Z,41.43
2023-02-02T06:38:14.100Z,49.03
2023-02-02T06:40:40.772Z,44.47
2023-02-02T06:43:08.947Z,55.33
2023-02-02T06:45:39.991Z,49.80
2023-02-02T06:48:10.764Z,33.97
2023-02-02T06:50:40.645Z,42.80
2023-02-02T06:53:07.354Z,41.13
2023-02-02T06:55:33.986Z,43.03
2023-02-02T06:58:01.518Z,50.60
2023-02-02T07:00:29.976Z,40.27
2023-02-02T07:02:56.800Z,38.47
2023-02-02T07:05:24.279Z,48.50
2023-02-02T07:07:51.436Z,42.23
2023-02-02T07:11:13.315Z,38.00
2023-02-02T07:13:06.897Z,39.30
2023-02-02T07:15:34.375Z,42.93
2023-02-02T07:18:01.763Z,35.50
2023-02-02T07:20:28.422Z,39.73
2023-02-02T07:22:55.160Z,27.37
2023-02-02T07:25:22.565Z,50.37
2023-02-02T07:27:53.594Z,42.27
2023-02-02T07:30:20.759Z,43.00
2023-02-02T07:32:49.410Z,40.90
2023-02-02T07:35:17.296Z,31.00
2023-02-02T07:37:43.954Z,40.23
2023-02-02T07:40:11.337Z,41.20
2023-02-02T07:42:38.011Z,37.57
2023-02-02T07:45:24.318Z,39.83
2023-02-02T07:47:57.206Z,42.93
2023-02-02T07:50:25.220Z,36.43
2023-02-02T07:52:52.538Z,53.67
2023-02-02T07:55:19.889Z,44.57
2023-02-02T07:57:46.663Z,52.30
2023-02-02T08:00:13.904Z,48.50
2023-02-02T08:02:40.621Z,42.23
2023-02-02T08:05:07.533Z,49.20
2023-02-02T08:07:34.960Z,45.93
2023-02-02T08:10:01.761Z,44.30
2023-02-02T08:12:28.452Z,45.27
2023-02-02T08:14:55.197Z,46.40
2023-02-02T08:17:23.215Z,49.87
2023-02-02T08:19:49.926Z,41.30
2023-02-02T08:22:17.894Z,37.63
2023-02-02T08:24:45.527Z,47.03
2023-02-02T08:27:12.187Z,44.30
2023-02-02T08:29:39.415Z,42.17
2023-02-02T08:32:06.190Z,46.37
2023-02-02T08:34:36.733Z,49.80
2023-02-02T08:37:03.973Z,39.97
2023-02-02T08:39:30.649Z,40.20
2023-02-02T08:41:57.563Z,38.83
2023-02-02T08:44:25.150Z,44.20
2023-02-02T08:46:54.475Z,34.27
2023-02-02T08:49:21.318Z,39.63
2023-02-02T08:51:47.964Z,31.10
2023-02-02T08:54:14.624Z,45.57
2023-02-02T08:56:41.278Z,39.93
2023-02-02T08:59:08.087Z,44.50
2023-02-02T09:01:35.561Z,40.83
2023-02-02T09:04:05.503Z,40.80
2023-02-02T09:06:34.635Z,42.83
2023-02-02T09:09:01.733Z,33.53
2023-02-02T09:11:28.958Z,48.27
2023-02-02T09:13:58.380Z,43.67
2023-02-02T09:16:26.467Z,44.90
2023-02-02T09:18:53.831Z,36.97
2023-02-02T09:21:20.944Z,33.83
2023-02-02T09:23:50.089Z,33.67
2023-02-02T09:26:28.543Z,40.77
2023-02-02T09:29:04.101Z,39.60
2023-02-02T09:31:34.383Z,35.50
2023-02-02T09:34:03.775Z,42.30
2023-02-02T09:36:30.776Z,40.47
2023-02-02T09:38:57.657Z,47.03
2023-02-02T09:41:39.337Z,43.73
2023-02-02T09:44:13.425Z,46.30
2023-02-02T09:46:40.079Z,42.57
2023-02-02T09:49:15.032Z,42.37
2023-02-02T09:51:46.257Z,42.63
2023-02-02T09:54:20.471Z,42.13
2023-02-02T09:56:51.523Z,40.87
2023-02-02T09:59:27.672Z,43.67
2023-02-02T10:01:58.404Z,43.87
2023-02-02T10:04:36.058Z,45.53
2023-02-02T10:07:34.395Z,41.73
2023-02-02T10:10:18.960Z,39.33
2023-02-02T10:12:51.920Z,41.30
2023-02-02T10:15:18.645Z,49.50
2023-02-02T10:17:56.527Z,40.63
2023-02-02T10:20:48.686Z,41.90
2023-02-02T10:23:23.234Z,44.40
2023-02-02T10:26:20.263Z,44.93
2023-02-02T10:29:15.321Z,45.57
2023-02-02T10:32:22.459Z,36.60
2023-02-02T10:35:37.001Z,49.90
2023-02-02T10:38:33.210Z,44.10
2023-02-02T10:41:14.394Z,49.57
2023-02-02T10:44:10.306Z,49.57
2023-02-02T10:46:42.893Z,41.63
2023-02-02T10:49:19.756Z,51.83
2023-02-02T10:52:02.478Z,42.80
2023-02-02T10:54:59.217Z,41.70
2023-02-02T10:58:01.985Z,44.53
2023-02-02T11:00:35.548Z,34.43
2023-02-02T11:03:04.620Z,41.97
2023-02-02T11:05:50.801Z,45.93
2023-02-02T11:08:20.925Z,40.53
2023-02-02T11:10:52.252Z,47.97
2023-02-02T11:13:27.433Z,42.53
2023-02-02T11:16:19.881Z,44.47
2023-02-02T11:18:47.045Z,44.17
2023-02-02T11:21:23.306Z,44.47
2023-02-02T11:24:22.014Z,42.87
2023-02-02T11:26:50.463Z,42.23
2023-02-02T11:29:27.414Z,44.53
2023-02-02T11:31:54.728Z,39.20
2023-02-02T11:34:28.309Z,35.60
2023-02-02T11:37:02.452Z,35.63
2023-02-02T11:39:29.196Z,38.10
2023-02-02T11:42:20.126Z,43.57
2023-02-02T11:44:53.531Z,40.00
2023-02-02T11:47:32.597Z,38.50
2023-02-02T11:50:02.269Z,34.80
2023-02-02T11:52:33.038Z,36.97
2023-02-02T11:55:02.528Z,37.57
2023-02-02T11:57:30.488Z,38.20
2023-02-02T12:00:26.952Z,34.50
2023-02-02T12:02:54.166Z,32.17
2023-02-02T12:05:21.192Z,41.70
2023-02-02T12:07:48.930Z,29.47
2023-02-02T12:10:34.020Z,40.20
2023-02-02T12:13:10.524Z,37.00
2023-02-02T12:16:08.385Z,34.03
2023-02-02T12:18:40.776Z,28.73
2023-02-02T12:21:07.436Z,32.93
2023-02-02T12:23:55.489Z,31.17
2023-02-02T12:26:34.311Z,28.50
2023-02-02T12:29:19.060Z,32.13
2023-02-02T12:32:15.090Z,37.17
2023-02-02T12:34:54.776Z,28.80
2023-02-02T12:37:49.244Z,31.77
2023-02-02T12:40:49.780Z,34.77
2023-02-02T12:43:35.099Z,27.13
2023-02-02T12:46:20.369Z,29.70
2023-02-02T12:49:07.622Z,35.27
2023-02-02T12:51:54.060Z,26.03
2023-02-02T12:54:52.733Z,27.07
2023-02-02T12:57:37.238Z,29.73
2023-02-02T13:00:07.165Z,25.27
2023-02-02T13:03:18.223Z,29.70
2023-02-02T13:06:10.433Z,36.00
2023-02-02T13:08:51.811Z,27.60
2023-02-02T13:11:32.850Z,35.07
2023-02-02T13:14:24.249Z,32.67
2023-02-02T13:16:55.918Z,34.67
2023-02-02T13:19:40.316Z,29.07
2023-02-02T13:22:29.150Z,24.93
2023-02-02T13:25:00.885Z,33.13
2023-02-02T13:27:30.588Z,34.27
2023-02-02T13:30:30.401Z,27.17
2023-02-02T13:33:04.770Z,23.33
2023-02-02T13:35:39.274Z,26.40
2023-02-02T13:38:25.638Z,33.77
2023-02-02T13:40:55.864Z,29.83
2023-02-02T13:43:32.194Z,31.37
2023-02-02T13:46:23.184Z,28.90
2023-02-02T13:49:07.266Z,30.27
2023-02-02T13:52:15.020Z,24.50
2023-02-02T13:55:04.791Z,27.00
2023-02-02T13:58:17.587Z,27.77
2023-02-02T14:00:53.845Z,25.37
2023-02-02T14:03:33.672Z,23.10
2023-02-02T14:06:19.079Z,25.93
2023-02-02T14:08:56.297Z,28.50
2023-02-02T14:11:37.721Z,22.80
2023-02-02T14:14:33.377Z,25.80
2023-02-02T14:17:17.177Z,20.83
2023-02-02T14:19:43.782Z,22.93
2023-02-02T14:22:11.723Z,24.53
2023-02-02T14:24:40.478Z,26.50
2023-02-02T14:27:07.153Z,22.90
2023-02-02T14:29:36.618Z,26.47
2023-02-02T14:32:29.369Z,20.00
2023-02-02T14:35:08.371Z,24.57
2023-02-02T14:37:53.766Z,29.10
2023-02-02T14:40:33.628Z,27.03
2023-02-02T14:43:49.491Z,29.47
2023-02-02T14:46:24.379Z,26.53
2023-02-02T14:48:53.806Z,24.80
2023-02-02T14:51:21.383Z,25.07
2023-02-02T14:54:09.943Z,24.17
2023-02-02T14:56:49.801Z,24.47
2023-02-02T14:59:27.663Z,26.87
2023-02-02T15:02:20.469Z,26.33
2023-02-02T15:04:48.144Z,27.67
2023-02-02T15:07:23.733Z,19.93
2023-02-02T15:09:58.090Z,21.93
2023-02-02T15:12:35.526Z,25.67
2023-02-02T15:15:20.495Z,27.83
2023-02-02T15:18:07.592Z,23.23
2023-02-02T15:20:40.553Z,17.10
2023-02-02T15:23:18.980Z,26.20
2023-02-02T15:25:51.589Z,19.17
2023-02-02T15:29:02.331Z,22.90
2023-02-02T15:31:46.461Z,21.50
2023-02-02T15:34:17.653Z,31.60
2023-02-02T15:36:46.957Z,25.20
2023-02-02T15:39:41.646Z,30.33
2023-02-02T15:42:51.266Z,25.10
2023-02-02T15:45:54.727Z,16.80
2023-02-02T15:48:30.639Z,18.53
2023-02-02T15:51:15.364Z,17.20
2023-02-02T15:53:41.975Z,20.53
2023-02-02T15:56:31.874Z,19.97
2023-02-02T15:58:59.845Z,21.03
2023-02-02T16:01:32.981Z,20.23
2023-02-02T16:03:59.659Z,18.97
2023-02-02T16:06:26.476Z,17.60
2023-02-02T16:08:53.182Z,25.83
2023-02-02T16:11:25.421Z,24.23
2023-02-02T16:14:04.817Z,17.80
2023-02-02T16:16:37.756Z,21.80
2023-02-02T16:19:23.937Z,22.33
2023-02-02T16:22:04.346Z,18.23
2023-02-02T16:24:36.008Z,20.93
2023-02-02T16:27:07.150Z,24.33
2023-02-02T16:29:35.171Z,25.30
2023-02-02T16:32:02.205Z,21.13
2023-02-02T16:34:41.117Z,21.30
2023-02-02T16:37:22.132Z,18.20
2023-02-02T16:39:49.517Z,31.50
2023-02-02T16:42:29.015Z,19.20
2023-02-02T16:44:57.111Z,22.63
2023-02-02T16:47:26.780Z,27.90
2023-02-02T16:50:08.763Z,24.57
2023-02-02T16:52:53.364Z,24.00
2023-02-02T16:55:21.236Z,24.67
2023-02-02T16:57:49.785Z,26.17
2023-02-02T17:00:31.436Z,27.23
2023-02-02T17:03:05.735Z,24.30
2023-02-02T17:05:35.676Z,31.00
2023-02-02T17:08:05.557Z,30.30
2023-02-02T17:10:38.026Z,30.50
2023-02-02T17:13:30.295Z,32.03
2023-02-02T17:15:58.496Z,27.90
2023-02-02T17:18:25.763Z,27.97
2023-02-02T17:21:03.495Z,26.60
2023-02-02T17:23:32.028Z,32.90
2023-02-02T17:25:59.129Z,32.60
2023-02-02T17:28:26.674Z,31.13
2023-02-02T17:31:06.612Z,31.77
2023-02-02T17:33:35.119Z,36.63
2023-02-02T17:36:03.291Z,28.67
2023-02-02T17:38:30.325Z,31.07
2023-02-02T17:41:01.611Z,31.60
2023-02-02T17:43:29.756Z,31.00
2023-02-02T17:45:56.527Z,31.60
2023-02-02T17:48:23.241Z,30.53
2023-02-02T17:50:50.339Z,33.23
2023-02-02T17:53:19.633Z,33.67
2023-02-02T17:55:49.552Z,35.57
2023-02-02T17:58:19.753Z,30.27
2023-02-02T18:00:56.159Z,40.50
2023-02-02T18:03:27.171Z,35.93
2023-02-02T18:05:54.387Z,29.43
2023-02-02T18:08:21.177Z,46.23
2023-02-02T18:10:48.157Z,36.40
2023-02-02T18:13:18.996Z,47.40
2023-02-02T18:15:46.465Z,36.30
2023-02-02T18:18:13.221Z,36.87
2023-02-02T18:20:48.417Z,35.50
2023-02-02T18:23:16.506Z,31.47
2023-02-02T18:25:43.263Z,33.60
2023-02-02T18:28:11.202Z,32.10
2023-02-02T18:30:39.781Z,35.10
2023-02-02T18:33:09.153Z,33.63
2023-02-02T18:35:40.391Z,33.70
2023-02-02T18:38:07.128Z,35.93
2023-02-02T18:40:33.902Z,39.20
2023-02-02T18:43:00.715Z,38.67
2023-02-02T18:45:28.026Z,34.57
2023-02-02T18:47:54.873Z,38.07
2023-02-02T18:50:21.958Z,34.37
2023-02-02T18:52:48.645Z,34.90
2023-02-02T18:55:15.407Z,39.93
2023-02-02T18:57:42.061Z,38.97
2023-02-02T19:00:09.549Z,47.07
2023-02-02T19:02:36.210Z,42.70
2023-02-02T19:05:41.509Z,46.70
2023-02-02T19:08:08.148Z,48.87
2023-02-02T19:10:35.249Z,46.30
2023-02-02T19:13:14.567Z,36.10
2023-02-02T19:15:42.251Z,47.20
2023-02-02T19:18:19.089Z,44.33
2023-02-02T19:20:46.605Z,52.47
2023-02-02T19:23:15.950Z,51.30
2023-02-02T19:25:46.543Z,58.60
2023-02-02T19:28:25.530Z,54.07
2023-02-02T19:30:54.119Z,51.50
2023-02-02T19:33:21.162Z,62.40
2023-02-02T19:35:52.257Z,61.00
2023-02-02T19:38:20.483Z,64.17
2023-02-02T19:40:48.214Z,62.47
2023-02-02T19:43:23.334Z,77.73
2023-02-02T19:45:50.290Z,61.17
2023-02-02T19:48:24.742Z,71.37
2023-02-02T19:50:51.778Z,64.47
2023-02-02T19:53:37.942Z,61.90
2023-02-02T19:56:24.627Z,58.70
2023-02-02T19:58:51.305Z,57.90
2023-02-02T20:01:21.265Z,55.90
2023-02-02T20:03:47.997Z,60.77
2023-02-02T20:06:24.718Z,56.40
2023-02-02T20:08:52.289Z,61.33
2023-02-02T20:11:36.960Z,54.67
2023-02-02T20:14:32.697Z,56.97
2023-02-02T20:17:07.394Z,52.17
2023-02-02T20:19:40.309Z,52.60
2023-02-02T20:22:28.471Z,52.17
2023-02-02T20:24:57.199Z,44.37
2023-02-02T20:27:26.549Z,54.47
2023-02-02T20:29:57.482Z,50.33
2023-02-02T20:32:36.890Z,48.20
2023-02-02T20:35:34.476Z,53.20
2023-02-02T20:38:01.408Z,42.33
2023-02-02T20:40:29.781Z,41.27
2023-02-02T20:42:58.156Z,47.43
2023-02-02T20:45:25.765Z,45.77
2023-02-02T20:47:52.829Z,41.00
2023-02-02T20:50:21.370Z,43.07
2023-02-02T20:52:48.629Z,43.03
2023-02-02T20:55:15.663Z,40.80
2023-02-02T20:57:42.374Z,39.87
2023-02-02T21:00:12.537Z,39.50
2023-02-02T21:02:39.467Z,39.93
2023-02-02T21:05:07.224Z,44.13
2023-02-02T21:07:33.860Z,38.47
2023-02-02T21:10:00.707Z,37.07
2023-02-02T21:12:27.436Z,37.20
2023-02-02T21:14:54.464Z,36.70
2023-02-02T21:17:21.420Z,37.73
2023-02-02T21:19:48.183Z,40.70
2023-02-02T21:22:15.039Z,40.90
2023-02-02T21:24:42.408Z,35.43
2023-02-02T21:27:09.307Z,37.90
2023-02-02T21:29:36.107Z,34.03
2023-02-02T21:32:04.295Z,32.10
2023-02-02T21:34:32.330Z,32.60
2023-02-02T21:36:59.626Z,36.37
2023-02-02T21:39:31.990Z,43.10
2023-02-02T21:42:07.932Z,36.87
2023-02-02T21:44:44.584Z,40.37
2023-02-02T21:47:23.931Z,38.20
2023-02-02T21:49:51.064Z,39.70
2023-02-02T21:52:19.328Z,41.07
2023-02-02T21:54:47.349Z,35.87
2023-02-02T21:57:36.901Z,34.00
2023-02-02T22:00:36.256Z,29.37
2023-02-02T22:03:03.099Z,27.93
2023-02-02T22:05:35.157Z,28.37
2023-02-02T22:08:07.887Z,34.77
2023-02-02T22:10:39.209Z,32.63
2023-02-02T22:13:16.774Z,29.30
2023-02-02T22:15:48.113Z,24.43
2023-02-02T22:18:18.401Z,30.53
2023-02-02T22:20:47.343Z,23.97
2023-02-02T22:23:16.526Z,33.87
2023-02-02T22:25:44.921Z,26.53
2023-02-02T22:28:25.960Z,25.23
2023-02-02T22:30:54.830Z,29.93
2023-02-02T22:33:23.510Z,27.97
2023-02-02T22:35:50.562Z,29.20
2023-02-02T22:38:22.984Z,26.47
2023-02-02T22:40:51.232Z,29.70
2023-02-02T22:43:19.885Z,29.30
2023-02-02T22:45:47.299Z,32.60
2023-02-02T22:48:15.651Z,28.47
2023-02-02T22:50:42.830Z,26.50
2023-02-02T22:53:10.102Z,24.83
2023-02-02T22:55:36.855Z,29.47
2023-02-02T22:58:03.589Z,24.40
2023-02-02T23:00:33.440Z,31.03
2023-02-02T23:03:00.252Z,31.33
2023-02-02T23:05:28.040Z,30.70
2023-02-02T23:07:55.380Z,27.23
2023-02-02T23:10:25.781Z,28.83
2023-02-02T23:12:54.855Z,31.03
2023-02-02T23:15:21.782Z,29.57
2023-02-02T23:17:48.916Z,29.50
2023-02-02T23:20:16.053Z,31.00
2023-02-02T23:22:42.890Z,30.27
2023-02-02T23:25:10.653Z,22.87
2023-02-02T23:27:37.699Z,29.40
2023-02-02T23:30:05.391Z,34.03
2023-02-02T23:32:32.035Z,28.70
2023-02-02T23:34:59.340Z,25.87
2023-02-02T23:37:26.313Z,24.40
2023-02-02T23:39:53.040Z,24.60
2023-02-02T23:42:19.749Z,29.60
2023-02-02T23:44:46.404Z,30.57
2023-02-02T23:47:13.120Z,27.00
2023-02-02T23:49:40.214Z,25.10
2023-02-02T23:52:07.146Z,27.63
2023-02-02T23:54:34.443Z,28.13
2023-02-02T23:57:01.791Z,27.07
2023-02-02T23:59:29.010Z,28.90
